sensor_id;sensor_type;location;lat;lon;timestamp;pressure;altitude;pressure_sealevel;temperature;humidity
47220;BME280;32961;51.936;4.788;2023-02-10T00:01:32;103546.78;;;1.28;100.00
47220;BME280;32961;51.936;4.788;2023-02-10T00:04:00;103546.78;;;1.28;100.00
47220;BME280;32961;51.936;4.788;2023-02-10T00:06:28;103546.78;;;1.28;100.00
47220;BME280;32961;51.936;4.788;2023-02-10T00:08:58;103543.25;;;1.26;100.00
47220;BME280;32961;51.936;4.788;2023-02-10T00:11:28;103544.16;;;1.25;100.00
47220;BME280;32961;51.936;4.788;2023-02-10T00:14:14;103547.69;;;1.26;100.00
47220;BME280;32961;51.936;4.788;2023-02-10T00:16:42;103543.25;;;1.25;100.00
47220;BME280;32961;51.936;4.788;2023-02-10T00:19:10;103545.91;;;1.25;100.00
47220;BME280;32961;51.936;4.788;2023-02-10T00:21:38;103544.19;;;1.24;100.00
47220;BME280;32961;51.936;4.788;2023-02-10T00:24:06;103538.81;;;1.22;100.00
47220;BME280;32961;51.936;4.788;2023-02-10T00:26:35;103539.72;;;1.23;100.00
47220;BME280;32961;51.936;4.788;2023-02-10T00:29:03;103541.47;;;1.25;100.00
47220;BME280;32961;51.936;4.788;2023-02-10T00:31:31;103542.34;;;1.26;100.00
47220;BME280;32961;51.936;4.788;2023-02-10T00:33:59;103538.75;;;1.27;100.00
47220;BME280;32961;51.936;4.788;2023-02-10T00:36:27;103541.44;;;1.27;100.00
47220;BME280;32961;51.936;4.788;2023-02-10T00:38:55;103544.13;;;1.27;100.00
47220;BME280;32961;51.936;4.788;2023-02-10T00:41:24;103536.97;;;1.27;100.00
47220;BME280;32961;51.936;4.788;2023-02-10T00:43:53;103542.31;;;1.29;100.00
47220;BME280;32961;51.936;4.788;2023-02-10T00:46:21;103537.88;;;1.28;100.00
47220;BME280;32961;51.936;4.788;2023-02-10T00:48:50;103530.69;;;1.28;100.00
47220;BME280;32961;51.936;4.788;2023-02-10T00:51:18;103524.47;;;1.28;100.00
47220;BME280;32961;51.936;4.788;2023-02-10T00:53:45;103524.50;;;1.26;100.00
47220;BME280;32961;51.936;4.788;2023-02-10T00:56:17;103526.28;;;1.26;100.00
47220;BME280;32961;51.936;4.788;2023-02-10T00:58:46;103537.00;;;1.26;100.00
47220;BME280;32961;51.936;4.788;2023-02-10T01:01:15;103526.28;;;1.26;100.00
47220;BME280;32961;51.936;4.788;2023-02-10T01:03:43;103532.53;;;1.26;100.00
47220;BME280;32961;51.936;4.788;2023-02-10T01:06:12;103533.47;;;1.24;100.00
47220;BME280;32961;51.936;4.788;2023-02-10T01:08:41;103532.56;;;1.23;100.00
47220;BME280;32961;51.936;4.788;2023-02-10T01:11:10;103540.56;;;1.25;100.00
47220;BME280;32961;51.936;4.788;2023-02-10T01:13:39;103538.81;;;1.24;100.00
47220;BME280;32961;51.936;4.788;2023-02-10T01:16:09;103537.03;;;1.23;100.00
47220;BME280;32961;51.936;4.788;2023-02-10T01:18:40;103537.00;;;1.26;100.00
47220;BME280;32961;51.936;4.788;2023-02-10T01:21:10;103539.66;;;1.26;100.00
47220;BME280;32961;51.936;4.788;2023-02-10T01:23:38;103548.59;;;1.25;100.00
47220;BME280;32961;51.936;4.788;2023-02-10T01:26:07;103548.59;;;1.25;100.00
47220;BME280;32961;51.936;4.788;2023-02-10T01:28:35;103552.22;;;1.24;100.00
47220;BME280;32961;51.936;4.788;2023-02-10T01:31:06;103553.97;;;1.23;100.00
47220;BME280;32961;51.936;4.788;2023-02-10T01:33:34;103550.44;;;1.23;100.00
47220;BME280;32961;51.936;4.788;2023-02-10T01:36:05;103559.38;;;1.22;100.00
47220;BME280;32961;51.936;4.788;2023-02-10T01:38:32;103561.16;;;1.20;100.00
47220;BME280;32961;51.936;4.788;2023-02-10T01:41:00;103557.63;;;1.16;100.00
47220;BME280;32961;51.936;4.788;2023-02-10T01:43:28;103567.47;;;1.16;100.00
47220;BME280;32961;51.936;4.788;2023-02-10T01:45:56;103562.13;;;1.12;100.00
47220;BME280;32961;51.936;4.788;2023-02-10T01:48:25;103563.03;;;1.11;100.00
47220;BME280;32961;51.936;4.788;2023-02-10T01:50:54;103568.44;;;1.08;100.00
47220;BME280;32961;51.936;4.788;2023-02-10T01:53:25;103564.91;;;1.05;100.00
47220;BME280;32961;51.936;4.788;2023-02-10T01:55:56;103563.16;;;1.02;100.00
47220;BME280;32961;51.936;4.788;2023-02-10T01:58:26;103559.56;;;1.02;100.00
47220;BME280;32961;51.936;4.788;2023-02-10T02:00:56;103560.50;;;1.01;100.00
47220;BME280;32961;51.936;4.788;2023-02-10T02:03:23;103563.16;;;0.99;100.00
47220;BME280;32961;51.936;4.788;2023-02-10T02:05:52;103573.88;;;0.99;100.00
47220;BME280;32961;51.936;4.788;2023-02-10T02:08:22;103564.09;;;0.95;100.00
47220;BME280;32961;51.936;4.788;2023-02-10T02:11:07;103563.22;;;0.93;100.00
47220;BME280;32961;51.936;4.788;2023-02-10T02:13:51;103563.22;;;0.93;100.00
47220;BME280;32961;51.936;4.788;2023-02-10T02:16:30;103564.13;;;0.93;100.00
47220;BME280;32961;51.936;4.788;2023-02-10T02:19:10;103560.56;;;0.94;100.00
47220;BME280;32961;51.936;4.788;2023-02-10T02:22:09;103558.75;;;0.95;100.00
47220;BME280;32961;51.936;4.788;2023-02-10T02:24:57;103558.72;;;0.96;100.00
47220;BME280;32961;51.936;4.788;2023-02-10T02:27:41;103561.44;;;0.95;100.00
47220;BME280;32961;51.936;4.788;2023-02-10T02:30:45;103560.53;;;0.93;100.00
47220;BME280;32961;51.936;4.788;2023-02-10T02:33:22;103554.34;;;0.91;100.00
47220;BME280;32961;51.936;4.788;2023-02-10T02:35:56;103557.91;;;0.90;100.00
47220;BME280;32961;51.936;4.788;2023-02-10T02:38:27;103565.94;;;0.90;100.00
47220;BME280;32961;51.936;4.788;2023-02-10T02:40:55;103567.72;;;0.89;100.00
47220;BME280;32961;51.936;4.788;2023-02-10T02:43:23;103576.66;;;0.90;100.00
47220;BME280;32961;51.936;4.788;2023-02-10T02:45:57;103583.78;;;0.91;100.00
47220;BME280;32961;51.936;4.788;2023-02-10T02:48:38;103581.13;;;0.91;100.00
47220;BME280;32961;51.936;4.788;2023-02-10T02:51:14;103578.44;;;0.89;100.00
47220;BME280;32961;51.936;4.788;2023-02-10T02:53:45;103596.31;;;0.87;100.00
47220;BME280;32961;51.936;4.788;2023-02-10T02:56:20;103587.34;;;0.88;100.00
47220;BME280;32961;51.936;4.788;2023-02-10T02:58:54;103595.38;;;0.88;100.00
47220;BME280;32961;51.936;4.788;2023-02-10T03:01:29;103587.41;;;0.85;100.00
47220;BME280;32961;51.936;4.788;2023-02-10T03:04:00;103588.28;;;0.84;100.00
47220;BME280;32961;51.936;4.788;2023-02-10T03:06:29;103590.09;;;0.84;100.00
47220;BME280;32961;51.936;4.788;2023-02-10T03:08:57;103586.50;;;0.83;100.00
47220;BME280;32961;51.936;4.788;2023-02-10T03:11:25;103581.19;;;0.82;100.00
47220;BME280;32961;51.936;4.788;2023-02-10T03:13:53;103578.50;;;0.82;100.00
47220;BME280;32961;51.936;4.788;2023-02-10T03:16:20;103585.63;;;0.83;100.00
47220;BME280;32961;51.936;4.788;2023-02-10T03:18:48;103582.94;;;0.84;100.00
47220;BME280;32961;51.936;4.788;2023-02-10T03:21:17;103590.97;;;0.84;100.00
47220;BME280;32961;51.936;4.788;2023-02-10T03:23:45;103589.19;;;0.83;100.00
47220;BME280;32961;51.936;4.788;2023-02-10T03:26:13;103583.84;;;0.82;100.00
47220;BME280;32961;51.936;4.788;2023-02-10T03:28:41;103594.56;;;0.82;100.00
47220;BME280;32961;51.936;4.788;2023-02-10T03:31:08;103599.03;;;0.81;100.00
47220;BME280;32961;51.936;4.788;2023-02-10T03:33:36;103591.91;;;0.80;100.00
47220;BME280;32961;51.936;4.788;2023-02-10T03:36:05;103587.44;;;0.79;100.00
47220;BME280;32961;51.936;4.788;2023-02-10T03:38:34;103589.25;;;0.77;100.00
47220;BME280;32961;51.936;4.788;2023-02-10T03:41:02;103592.81;;;0.76;100.00
47220;BME280;32961;51.936;4.788;2023-02-10T03:43:30;103593.72;;;0.76;100.00
47220;BME280;32961;51.936;4.788;2023-02-10T03:45:59;103601.75;;;0.76;100.00
47220;BME280;32961;51.936;4.788;2023-02-10T03:48:27;103610.66;;;0.77;100.00
47220;BME280;32961;51.936;4.788;2023-02-10T03:50:57;103595.50;;;0.74;100.00
47220;BME280;32961;51.936;4.788;2023-02-10T03:53:26;103596.44;;;0.75;100.00
47220;BME280;32961;51.936;4.788;2023-02-10T03:55:55;103592.84;;;0.74;100.00
47220;BME280;32961;51.936;4.788;2023-02-10T03:58:24;103586.63;;;0.74;100.00
47220;BME280;32961;51.936;4.788;2023-02-10T04:00:52;103588.38;;;0.76;100.00
47220;BME280;32961;51.936;4.788;2023-02-10T04:03:20;103588.38;;;0.76;100.00
47220;BME280;32961;51.936;4.788;2023-02-10T04:05:48;103585.66;;;0.78;100.00
47220;BME280;32961;51.936;4.788;2023-02-10T04:08:16;103586.56;;;0.77;100.00
47220;BME280;32961;51.936;4.788;2023-02-10T04:10:44;103593.72;;;0.76;100.00
47220;BME280;32961;51.936;4.788;2023-02-10T04:13:13;103588.38;;;0.76;100.00
47220;BME280;32961;51.936;4.788;2023-02-10T04:15:41;103592.81;;;0.77;100.00
47220;BME280;32961;51.936;4.788;2023-02-10T04:18:08;103589.25;;;0.77;100.00
47220;BME280;32961;51.936;4.788;2023-02-10T04:20:36;103591.91;;;0.77;100.00
47220;BME280;32961;51.936;4.788;2023-02-10T04:23:04;103599.06;;;0.76;100.00
47220;BME280;32961;51.936;4.788;2023-02-10T04:25:32;103599.94;;;0.77;100.00
47220;BME280;32961;51.936;4.788;2023-02-10T04:27:59;103596.41;;;0.76;100.00
47220;BME280;32961;51.936;4.788;2023-02-10T04:30:29;103604.44;;;0.76;100.00
47220;BME280;32961;51.936;4.788;2023-02-10T04:32:56;103595.50;;;0.76;100.00
47220;BME280;32961;51.936;4.788;2023-02-10T04:35:24;103594.63;;;0.74;100.00
47220;BME280;32961;51.936;4.788;2023-02-10T04:37:52;103600.00;;;0.74;100.00
47220;BME280;32961;51.936;4.788;2023-02-10T04:40:20;103596.41;;;0.73;100.00
47220;BME280;32961;51.936;4.788;2023-02-10T04:42:47;103608.94;;;0.71;100.00
47220;BME280;32961;51.936;4.788;2023-02-10T04:45:15;103602.69;;;0.71;100.00
47220;BME280;32961;51.936;4.788;2023-02-10T04:47:44;103605.34;;;0.71;100.00
47220;BME280;32961;51.936;4.788;2023-02-10T04:50:12;103600.91;;;0.70;100.00
47220;BME280;32961;51.936;4.788;2023-02-10T04:52:40;103600.00;;;0.71;100.00
47220;BME280;32961;51.936;4.788;2023-02-10T04:55:08;103591.97;;;0.71;100.00
47220;BME280;32961;51.936;4.788;2023-02-10T04:57:35;103593.75;;;0.72;100.00
47220;BME280;32961;51.936;4.788;2023-02-10T05:00:04;103583.91;;;0.72;100.00
47220;BME280;32961;51.936;4.788;2023-02-10T05:02:32;103583.91;;;0.72;100.00
47220;BME280;32961;51.936;4.788;2023-02-10T05:05:01;103583.91;;;0.72;100.00
47220;BME280;32961;51.936;4.788;2023-02-10T05:07:29;103591.06;;;0.73;100.00
47220;BME280;32961;51.936;4.788;2023-02-10T05:09:57;103583.94;;;0.74;100.00
47220;BME280;32961;51.936;4.788;2023-02-10T05:12:25;103588.38;;;0.73;100.00
47220;BME280;32961;51.936;4.788;2023-02-10T05:14:53;103588.41;;;0.72;100.00
47220;BME280;32961;51.936;4.788;2023-02-10T05:17:21;103596.44;;;0.70;100.00
47220;BME280;32961;51.936;4.788;2023-02-10T05:19:49;103587.53;;;0.70;100.00
47220;BME280;32961;51.936;4.788;2023-02-10T05:22:18;103590.22;;;0.68;100.00
47220;BME280;32961;51.936;4.788;2023-02-10T05:24:45;103595.56;;;0.68;100.00
47220;BME280;32961;51.936;4.788;2023-02-10T05:27:13;103597.34;;;0.66;100.00
47220;BME280;32961;51.936;4.788;2023-02-10T05:29:41;103592.06;;;0.63;100.00
47220;BME280;32961;51.936;4.788;2023-02-10T05:32:09;103589.38;;;0.60;100.00
47220;BME280;32961;51.936;4.788;2023-02-10T05:34:36;103592.97;;;0.57;100.00
47220;BME280;32961;51.936;4.788;2023-02-10T05:37:04;103597.44;;;0.57;100.00
47220;BME280;32961;51.936;4.788;2023-02-10T05:39:34;103598.38;;;0.54;100.00
47220;BME280;32961;51.936;4.788;2023-02-10T05:42:01;103601.97;;;0.52;100.00
47220;BME280;32961;51.936;4.788;2023-02-10T05:44:30;103607.28;;;0.50;100.00
47220;BME280;32961;51.936;4.788;2023-02-10T05:46:58;103609.09;;;0.50;100.00
47220;BME280;32961;51.936;4.788;2023-02-10T05:49:26;103600.19;;;0.47;100.00
47220;BME280;32961;51.936;4.788;2023-02-10T05:51:54;103602.84;;;0.47;100.00
47220;BME280;32961;51.936;4.788;2023-02-10T05:54:22;103592.19;;;0.44;100.00
47220;BME280;32961;51.936;4.788;2023-02-10T05:56:51;103593.09;;;0.40;100.00
47220;BME280;32961;51.936;4.788;2023-02-10T05:59:18;103588.66;;;0.38;100.00
47220;BME280;32961;51.936;4.788;2023-02-10T06:01:46;103586.91;;;0.34;100.00
47220;BME280;32961;51.936;4.788;2023-02-10T06:04:14;103582.47;;;0.29;100.00
47220;BME280;32961;51.936;4.788;2023-02-10T06:06:42;103586.97;;;0.27;100.00
47220;BME280;32961;51.936;4.788;2023-02-10T06:09:10;103586.97;;;0.26;100.00
47220;BME280;32961;51.936;4.788;2023-02-10T06:11:38;103586.97;;;0.23;100.00
47220;BME280;32961;51.936;4.788;2023-02-10T06:14:07;103598.59;;;0.20;100.00
47220;BME280;32961;51.936;4.788;2023-02-10T06:16:34;103610.19;;;0.18;100.00
47220;BME280;32961;51.936;4.788;2023-02-10T06:19:02;103614.66;;;0.15;100.00
47220;BME280;32961;51.936;4.788;2023-02-10T06:21:30;103615.53;;;0.14;100.00
47220;BME280;32961;51.936;4.788;2023-02-10T06:23:58;103614.66;;;0.15;100.00
47220;BME280;32961;51.936;4.788;2023-02-10T06:26:26;103614.66;;;0.14;100.00
47220;BME280;32961;51.936;4.788;2023-02-10T06:28:54;103623.56;;;0.14;100.00
47220;BME280;32961;51.936;4.788;2023-02-10T06:31:23;103629.81;;;0.12;100.00
47220;BME280;32961;51.936;4.788;2023-02-10T06:33:52;103634.28;;;0.10;100.00
47220;BME280;32961;51.936;4.788;2023-02-10T06:36:20;103625.41;;;0.08;100.00
47220;BME280;32961;51.936;4.788;2023-02-10T06:38:47;103622.75;;;0.03;100.00
47220;BME280;32961;51.936;4.788;2023-02-10T06:41:15;103627.19;;;0.01;100.00
47220;BME280;32961;51.936;4.788;2023-02-10T06:43:43;103637.91;;;-0.01;100.00
47220;BME280;32961;51.936;4.788;2023-02-10T06:46:11;103631.69;;;-0.01;100.00
47220;BME280;32961;51.936;4.788;2023-02-10T06:48:43;103628.09;;;-0.02;100.00
47220;BME280;32961;51.936;4.788;2023-02-10T06:51:11;103629.00;;;-0.01;100.00
47220;BME280;32961;51.936;4.788;2023-02-10T06:53:39;103636.13;;;0.00;100.00
47220;BME280;32961;51.936;4.788;2023-02-10T06:56:07;103637.00;;;0.01;100.00
47220;BME280;32961;51.936;4.788;2023-02-10T06:58:35;103637.00;;;0.02;100.00
47220;BME280;32961;51.936;4.788;2023-02-10T07:01:06;103627.19;;;0.04;100.00
47220;BME280;32961;51.936;4.788;2023-02-10T07:03:34;103629.88;;;0.04;100.00
47220;BME280;32961;51.936;4.788;2023-02-10T07:06:03;103636.97;;;0.04;100.00
47220;BME280;32961;51.936;4.788;2023-02-10T07:08:31;103622.75;;;0.06;100.00
47220;BME280;32961;51.936;4.788;2023-02-10T07:10:59;103620.97;;;0.05;100.00
47220;BME280;32961;51.936;4.788;2023-02-10T07:13:27;103628.09;;;0.06;100.00
47220;BME280;32961;51.936;4.788;2023-02-10T07:15:55;103620.97;;;0.05;100.00
47220;BME280;32961;51.936;4.788;2023-02-10T07:18:22;103618.28;;;0.04;100.00
47220;BME280;32961;51.936;4.788;2023-02-10T07:20:50;103628.97;;;0.04;100.00
47220;BME280;32961;51.936;4.788;2023-02-10T07:23:19;103641.44;;;0.05;100.00
47220;BME280;32961;51.936;4.788;2023-02-10T07:26:01;103649.50;;;0.02;100.00
47220;BME280;32961;51.936;4.788;2023-02-10T07:28:31;103648.59;;;0.04;100.00
47220;BME280;32961;51.936;4.788;2023-02-10T07:30:59;103653.03;;;0.04;100.00
47220;BME280;32961;51.936;4.788;2023-02-10T07:33:27;103661.03;;;0.04;100.00
47220;BME280;32961;51.936;4.788;2023-02-10T07:35:58;103656.59;;;0.01;100.00
47220;BME280;32961;51.936;4.788;2023-02-10T07:38:28;103661.94;;;0.01;100.00
47220;BME280;32961;51.936;4.788;2023-02-10T07:40:57;103672.66;;;0.01;100.00
47220;BME280;32961;51.936;4.788;2023-02-10T07:43:25;103678.88;;;0.03;100.00
47220;BME280;32961;51.936;4.788;2023-02-10T07:45:52;103678.91;;;0.00;100.00
47220;BME280;32961;51.936;4.788;2023-02-10T07:48:20;103679.75;;;0.04;100.00
47220;BME280;32961;51.936;4.788;2023-02-10T07:50:48;103679.78;;;0.05;100.00
47220;BME280;32961;51.936;4.788;2023-02-10T07:53:16;103677.09;;;0.07;100.00
47220;BME280;32961;51.936;4.788;2023-02-10T07:55:46;103672.66;;;0.04;100.00
47220;BME280;32961;51.936;4.788;2023-02-10T07:58:14;103667.31;;;0.04;100.00
47220;BME280;32961;51.936;4.788;2023-02-10T08:00:42;103671.78;;;0.01;100.00
47220;BME280;32961;51.936;4.788;2023-02-10T08:03:12;103678.91;;;0.02;100.00
47220;BME280;32961;51.936;4.788;2023-02-10T08:05:40;103669.97;;;0.01;100.00
47220;BME280;32961;51.936;4.788;2023-02-10T08:08:09;103675.34;;;-0.01;100.00
47220;BME280;32961;51.936;4.788;2023-02-10T08:10:39;103671.75;;;0.04;100.00
47220;BME280;32961;51.936;4.788;2023-02-10T08:13:09;103678.88;;;0.08;100.00
47220;BME280;32961;51.936;4.788;2023-02-10T08:15:37;103689.56;;;0.09;100.00
47220;BME280;32961;51.936;4.788;2023-02-10T08:18:05;103687.78;;;0.08;100.00
47220;BME280;32961;51.936;4.788;2023-02-10T08:20:32;103697.56;;;0.09;100.00
47220;BME280;32961;51.936;4.788;2023-02-10T08:23:00;103695.78;;;0.08;100.00
47220;BME280;32961;51.936;4.788;2023-02-10T08:25:28;103696.69;;;0.09;100.00
47220;BME280;32961;51.936;4.788;2023-02-10T08:27:56;103681.53;;;0.09;100.00
47220;BME280;32961;51.936;4.788;2023-02-10T08:30:26;103681.53;;;0.09;100.00
47220;BME280;32961;51.936;4.788;2023-02-10T08:32:54;103683.31;;;0.10;100.00
47220;BME280;32961;51.936;4.788;2023-02-10T08:35:22;103688.63;;;0.13;100.00
47220;BME280;32961;51.936;4.788;2023-02-10T08:37:50;103683.28;;;0.17;100.00
47220;BME280;32961;51.936;4.788;2023-02-10T08:40:18;103685.06;;;0.18;100.00
47220;BME280;32961;51.936;4.788;2023-02-10T08:42:46;103681.50;;;0.20;100.00
47220;BME280;32961;51.936;4.788;2023-02-10T08:45:13;103677.91;;;0.26;100.00
47220;BME280;32961;51.936;4.788;2023-02-10T08:47:44;103677.88;;;0.29;100.00
47220;BME280;32961;51.936;4.788;2023-02-10T08:50:11;103683.19;;;0.38;100.00
47220;BME280;32961;51.936;4.788;2023-02-10T08:52:39;103678.69;;;0.43;100.00
47220;BME280;32961;51.936;4.788;2023-02-10T08:55:07;103681.34;;;0.50;100.00
47220;BME280;32961;51.936;4.788;2023-02-10T08:57:38;103679.50;;;0.55;100.00
47220;BME280;32961;51.936;4.788;2023-02-10T09:00:07;103678.63;;;0.56;100.00
47220;BME280;32961;51.936;4.788;2023-02-10T09:02:35;103678.59;;;0.59;100.00
47220;BME280;32961;51.936;4.788;2023-02-10T09:05:04;103675.91;;;0.62;100.00
47220;BME280;32961;51.936;4.788;2023-02-10T09:07:36;103686.59;;;0.63;100.00
47220;BME280;32961;51.936;4.788;2023-02-10T09:10:04;103698.16;;;0.67;100.00
47220;BME280;32961;51.936;4.788;2023-02-10T09:12:32;103699.03;;;0.69;100.00
47220;BME280;32961;51.936;4.788;2023-02-10T09:15:00;103679.44;;;0.67;100.00
47220;BME280;32961;51.936;4.788;2023-02-10T09:17:28;103689.25;;;0.67;100.00
47220;BME280;32961;51.936;4.788;2023-02-10T09:19:56;103691.91;;;0.68;100.00
47220;BME280;32961;51.936;4.788;2023-02-10T09:22:25;103692.75;;;0.73;100.00
47220;BME280;32961;51.936;4.788;2023-02-10T09:24:53;103699.91;;;0.74;100.00
47220;BME280;32961;51.936;4.788;2023-02-10T09:27:21;103707.03;;;0.77;100.00
47220;BME280;32961;51.936;4.788;2023-02-10T09:29:49;103705.19;;;0.82;100.00
47220;BME280;32961;51.936;4.788;2023-02-10T09:32:17;103701.59;;;0.88;100.00
47220;BME280;32961;51.936;4.788;2023-02-10T09:34:44;103707.78;;;0.93;100.00
47220;BME280;32961;51.936;4.788;2023-02-10T09:37:12;103712.25;;;0.97;100.00
47220;BME280;32961;51.936;4.788;2023-02-10T09:39:41;103714.00;;;1.00;100.00
47220;BME280;32961;51.936;4.788;2023-02-10T09:42:16;103717.56;;;1.03;100.00
47220;BME280;32961;51.936;4.788;2023-02-10T09:44:48;103725.53;;;1.08;100.00
47220;BME280;32961;51.936;4.788;2023-02-10T09:47:34;103725.53;;;1.11;100.00
47220;BME280;32961;51.936;4.788;2023-02-10T09:50:28;103721.03;;;1.15;100.00
47220;BME280;32961;51.936;4.788;2023-02-10T09:53:03;103714.72;;;1.19;100.00
47220;BME280;32961;51.936;4.788;2023-02-10T09:55:38;103712.03;;;1.22;100.00
47220;BME280;32961;51.936;4.788;2023-02-10T09:58:14;103706.66;;;1.25;100.00
47220;BME280;32961;51.936;4.788;2023-02-10T10:00:45;103703.03;;;1.31;100.00
47220;BME280;32961;51.936;4.788;2023-02-10T10:03:17;103711.06;;;1.34;100.00
47220;BME280;32961;51.936;4.788;2023-02-10T10:05:52;103712.78;;;1.39;100.00
47220;BME280;32961;51.936;4.788;2023-02-10T10:08:28;103703.81;;;1.45;100.00
47220;BME280;32961;51.936;4.788;2023-02-10T10:11:02;103701.91;;;1.56;100.00
47220;BME280;32961;51.936;4.788;2023-02-10T10:13:34;103703.59;;;1.65;100.00
47220;BME280;32961;51.936;4.788;2023-02-10T10:16:19;103696.28;;;1.80;100.00
47220;BME280;32961;51.936;4.788;2023-02-10T10:19:05;103693.47;;;1.92;100.00
47220;BME280;32961;51.936;4.788;2023-02-10T10:21:43;103688.81;;;2.06;100.00
47220;BME280;32961;51.936;4.788;2023-02-10T10:24:33;103700.28;;;2.19;100.00
47220;BME280;32961;51.936;4.788;2023-02-10T10:27:14;103692.09;;;2.30;100.00
47220;BME280;32961;51.936;4.788;2023-02-10T10:29:50;103680.28;;;2.44;100.00
47220;BME280;32961;51.936;4.788;2023-02-10T10:32:28;103682.84;;;2.53;100.00
47220;BME280;32961;51.936;4.788;2023-02-10T10:35:00;103675.50;;;2.64;100.00
47220;BME280;32961;51.936;4.788;2023-02-10T10:37:29;103675.31;;;2.77;100.00
47220;BME280;32961;51.936;4.788;2023-02-10T10:40:00;103681.41;;;2.89;100.00
47220;BME280;32961;51.936;4.788;2023-02-10T10:42:40;103672.25;;;3.00;100.00
47220;BME280;32961;51.936;4.788;2023-02-10T10:45:14;103672.13;;;3.08;100.00
47220;BME280;32961;51.936;4.788;2023-02-10T10:47:46;103679.13;;;3.18;100.00
47220;BME280;32961;51.936;4.788;2023-02-10T10:50:17;103683.50;;;3.25;100.00
47220;BME280;32961;51.936;4.788;2023-02-10T10:52:46;103674.38;;;3.34;100.00
47220;BME280;32961;51.936;4.788;2023-02-10T10:55:22;103676.91;;;3.42;100.00
47220;BME280;32961;51.936;4.788;2023-02-10T10:57:55;103677.59;;;3.53;100.00
47220;BME280;32961;51.936;4.788;2023-02-10T11:00:25;103672.06;;;3.62;100.00
47220;BME280;32961;51.936;4.788;2023-02-10T11:02:57;103667.38;;;3.72;100.00
47220;BME280;32961;51.936;4.788;2023-02-10T11:05:30;103666.31;;;3.81;100.00
47220;BME280;32961;51.936;4.788;2023-02-10T11:08:00;103667.09;;;3.86;100.00
47220;BME280;32961;51.936;4.788;2023-02-10T11:10:31;103674.06;;;3.95;100.00
47220;BME280;32961;51.936;4.788;2023-02-10T11:13:02;103668.53;;;4.04;100.00
47220;BME280;32961;51.936;4.788;2023-02-10T11:15:37;103671.94;;;4.12;100.00
47220;BME280;32961;51.936;4.788;2023-02-10T11:18:07;103655.66;;;4.18;100.00
47220;BME280;32961;51.936;4.788;2023-02-10T11:20:40;103664.47;;;4.25;100.00
47220;BME280;32961;51.936;4.788;2023-02-10T11:23:13;103665.25;;;4.32;100.00
47220;BME280;32961;51.936;4.788;2023-02-10T11:25:45;103651.59;;;4.40;100.00
47220;BME280;32961;51.936;4.788;2023-02-10T11:28:19;103664.03;;;4.44;100.00
47220;BME280;32961;51.936;4.788;2023-02-10T11:30:54;103654.13;;;4.46;100.00
47220;BME280;32961;51.936;4.788;2023-02-10T11:33:25;103653.13;;;4.52;100.00
47220;BME280;32961;51.936;4.788;2023-02-10T11:36:03;103637.84;;;4.52;100.00
47220;BME280;32961;51.936;4.788;2023-02-10T11:38:34;103646.91;;;4.48;99.95
47220;BME280;32961;51.936;4.788;2023-02-10T11:41:04;103642.41;;;4.48;99.66
47220;BME280;32961;51.936;4.788;2023-02-10T11:43:41;103640.47;;;4.55;99.72
47220;BME280;32961;51.936;4.788;2023-02-10T11:46:17;103644.66;;;4.69;100.00
47220;BME280;32961;51.936;4.788;2023-02-10T11:48:52;103644.41;;;4.78;99.66
47220;BME280;32961;51.936;4.788;2023-02-10T11:51:20;103640.63;;;4.85;99.28
47220;BME280;32961;51.936;4.788;2023-02-10T11:53:48;103644.06;;;4.92;98.42
47220;BME280;32961;51.936;4.788;2023-02-10T11:56:21;103645.81;;;4.93;96.22
47220;BME280;32961;51.936;4.788;2023-02-10T11:59:19;103645.69;;;4.99;96.73
47220;BME280;32961;51.936;4.788;2023-02-10T12:01:55;103637.41;;;5.07;95.65
47220;BME280;32961;51.936;4.788;2023-02-10T12:04:52;103639.88;;;5.14;96.73
47220;BME280;32961;51.936;4.788;2023-02-10T12:07:33;103637.84;;;5.24;96.56
47220;BME280;32961;51.936;4.788;2023-02-10T12:10:09;103629.50;;;5.34;95.82
47220;BME280;32961;51.936;4.788;2023-02-10T12:12:43;103623.03;;;5.41;95.75
47220;BME280;32961;51.936;4.788;2023-02-10T12:15:27;103615.69;;;5.46;95.57
47220;BME280;32961;51.936;4.788;2023-02-10T12:18:09;103619.06;;;5.54;95.00
47220;BME280;32961;51.936;4.788;2023-02-10T12:20:44;103619.81;;;5.59;94.28
47220;BME280;32961;51.936;4.788;2023-02-10T12:26:18;103619.41;;;5.73;94.01
47220;BME280;32961;51.936;4.788;2023-02-10T12:29:01;103605.72;;;5.79;94.45
47220;BME280;32961;51.936;4.788;2023-02-10T12:31:40;103603.75;;;5.86;93.46
47220;BME280;32961;51.936;4.788;2023-02-10T12:34:22;103607.97;;;5.95;93.59
47220;BME280;32961;51.936;4.788;2023-02-10T12:37:00;103615.06;;;5.99;94.03
47220;BME280;32961;51.936;4.788;2023-02-10T12:39:36;103609.50;;;6.05;93.14
47220;BME280;32961;51.936;4.788;2023-02-10T12:42:17;103606.56;;;6.13;93.69
47220;BME280;32961;51.936;4.788;2023-02-10T12:44:57;103600.09;;;6.19;93.33
47220;BME280;32961;51.936;4.788;2023-02-10T12:47:37;103600.88;;;6.22;92.27
47220;BME280;32961;51.936;4.788;2023-02-10T12:50:25;103595.19;;;6.32;92.54
47220;BME280;32961;51.936;4.788;2023-02-10T12:52:58;103596.75;;;6.39;91.81
47220;BME280;32961;51.936;4.788;2023-02-10T12:55:41;103596.50;;;6.47;91.71
47220;BME280;32961;51.936;4.788;2023-02-10T12:58:14;103596.25;;;6.54;91.83
47220;BME280;32961;51.936;4.788;2023-02-10T13:00:46;103601.56;;;6.57;90.90
47220;BME280;32961;51.936;4.788;2023-02-10T13:03:22;103601.66;;;6.54;90.64
47220;BME280;32961;51.936;4.788;2023-02-10T13:05:57;103588.06;;;6.56;90.79
47220;BME280;32961;51.936;4.788;2023-02-10T13:08:33;103585.34;;;6.57;91.83
47220;BME280;32961;51.936;4.788;2023-02-10T13:11:07;103587.00;;;6.62;91.34
47220;BME280;32961;51.936;4.788;2023-02-10T13:13:38;103577.81;;;6.67;91.45